Time;durP1;ratioP1;P1;durP2;ratioP2;P2;SDS_P1;SDS_P2;PMS_P1;PMS_P2;Temp;Humidity;BMP_temperature;BMP_pressure;BME280_temperature;BME280_humidity;BME280_pressure;Samples;Min_cycle;Max_cycle;Signal;HPM_P1;HPM_P2
2022/05/27 00:00:45;;;;;;;0.40;0.20;;;;;;;15.75;90.02;100711.38;5046567;28;20451;-78
2022/05/27 00:03:12;;;;;;;0.40;0.20;;;;;;;15.87;90.20;100719.78;5045828;28;20556;-78
2022/05/27 00:05:39;;;;;;;4.83;0.70;;;;;;;15.72;90.23;100706.16;5028804;28;20466;-78
2022/05/27 00:08:06;;;;;;;0.40;0.20;;;;;;;15.80;89.71;100701.34;5014202;28;20453;-78
2022/05/27 00:10:34;;;;;;;0.40;0.20;;;;;;;15.64;91.04;100701.16;5021020;28;20994;-78
2022/05/27 00:13:01;;;;;;;10.13;1.33;;;;;;;15.63;91.11;100699.41;5023931;28;20448;-78
2022/05/27 00:15:27;;;;;;;0.40;0.30;;;;;;;15.71;89.86;100699.94;5042516;28;20461;-78
2022/05/27 00:17:54;;;;;;;0.40;0.20;;;;;;;15.63;90.71;100697.59;5040038;28;20987;-78
2022/05/27 00:20:21;;;;;;;0.40;0.20;;;;;;;15.56;90.92;100692.53;5034238;28;20470;-78
2022/05/27 00:22:47;;;;;;;0.40;0.20;;;;;;;15.46;91.17;100699.19;5033288;28;20829;-78
2022/05/27 00:25:14;;;;;;;0.70;0.70;;;;;;;15.58;91.09;100686.16;5023629;28;20492;-78
2022/05/27 00:27:41;;;;;;;0.40;0.20;;;;;;;15.50;91.53;100688.31;5022874;28;20576;-78
2022/05/27 00:30:09;;;;;;;0.40;0.20;;;;;;;15.64;91.19;100687.75;5029693;28;20482;-78
2022/05/27 00:32:37;;;;;;;0.40;0.20;;;;;;;15.54;91.45;100691.72;5029333;28;20512;-78
2022/05/27 00:35:05;;;;;;;0.40;0.20;;;;;;;15.94;89.73;100696.25;5017927;28;20482;-78
2022/05/27 00:37:31;;;;;;;1.03;1.03;;;;;;;16.02;89.86;100671.75;5015921;28;20529;-78
2022/05/27 00:39:58;;;;;;;0.40;0.20;;;;;;;16.01;89.81;100681.63;5008125;28;21014;-78
2022/05/27 00:42:25;;;;;;;0.40;0.20;;;;;;;15.86;91.13;100677.81;5032378;28;20479;-78
2022/05/27 00:44:52;;;;;;;0.70;0.70;;;;;;;15.83;90.48;100671.72;5047864;28;20517;-78
2022/05/27 00:47:22;;;;;;;0.40;0.20;;;;;;;15.68;91.15;100666.09;5059442;23;20618;-79
2022/05/27 00:49:55;;;;;;;0.40;0.20;;;;;;;15.56;92.04;100673.75;5077586;28;20450;-79
2022/05/27 00:52:28;;;;;;;0.50;0.40;;;;;;;15.57;92.71;100679.06;5064217;28;20524;-79
2022/05/27 00:54:55;;;;;;;0.40;0.20;;;;;;;15.61;91.99;100666.41;5066770;28;20498;-79
2022/05/27 00:57:27;;;;;;;0.40;0.30;;;;;;;15.86;90.54;100668.91;5070457;28;20463;-79
2022/05/27 01:00:16;;;;;;;0.40;0.20;;;;;;;15.75;91.61;100666.69;5068135;28;20449;-80
2022/05/27 01:02:44;;;;;;;0.40;0.20;;;;;;;15.94;91.35;100664.09;5053048;28;20517;-80
2022/05/27 01:05:14;;;;;;;0.40;0.27;;;;;;;16.17;89.87;100646.94;5064259;28;20466;-79
2022/05/27 01:07:40;;;;;;;4.63;1.37;;;;;;;16.19;90.04;100664.72;5068720;28;20500;-80
2022/05/27 01:10:11;;;;;;;0.40;0.20;;;;;;;16.50;89.26;100668.66;5058880;28;20463;-80
2022/05/27 01:12:56;;;;;;;0.40;0.20;;;;;;;16.52;88.95;100669.44;5072772;28;20439;-80
2022/05/27 01:15:26;;;;;;;24.67;1.23;;;;;;;16.61;89.00;100662.78;5072050;28;20500;-80
2022/05/27 01:18:05;;;;;;;0.40;0.20;;;;;;;16.63;88.88;100656.41;5069300;28;20488;-79
2022/05/27 01:20:50;;;;;;;0.40;0.20;;;;;;;16.53;89.19;100655.97;5052741;28;20463;-79
2022/05/27 01:23:41;;;;;;;0.40;0.20;;;;;;;16.52;89.50;100647.97;5074438;28;20486;-79
2022/05/27 01:26:35;;;;;;;0.40;0.30;;;;;;;16.48;90.11;100651.75;5059600;28;20955;-80
2022/05/27 01:29:31;;;;;;;0.40;0.20;;;;;;;16.42;90.54;100666.31;5071954;28;20442;-80
2022/05/27 01:32:14;;;;;;;0.40;0.20;;;;;;;16.37;90.70;100660.31;5070584;28;20454;-79
2022/05/27 01:34:58;;;;;;;0.40;0.40;;;;;;;16.39;90.81;100660.25;5065852;28;20476;-80
2022/05/27 01:37:34;;;;;;;1.03;0.57;;;;;;;16.41;90.96;100661.03;5075426;28;20450;-79
2022/05/27 01:40:14;;;;;;;0.40;0.20;;;;;;;16.45;90.86;100654.59;5069678;28;20468;-80
2022/05/27 01:42:55;;;;;;;0.40;0.20;;;;;;;16.24;90.98;100638.53;5065758;28;20893;-80
2022/05/27 01:45:30;;;;;;;0.40;0.40;;;;;;;16.40;91.08;100667.34;5064881;28;20557;-79
2022/05/27 01:48:03;;;;;;;0.40;0.20;;;;;;;16.45;90.71;100666.19;5044497;28;21280;-79
2022/05/27 01:50:38;;;;;;;0.40;0.20;;;;;;;16.48;90.51;100666.06;5069762;28;20472;-79
2022/05/27 01:53:31;;;;;;;0.40;0.20;;;;;;;16.43;90.55;100653.78;5067430;28;20807;-80
2022/05/27 01:56:13;;;;;;;0.40;0.20;;;;;;;16.62;89.58;100657.34;5064052;28;20458;-80
2022/05/27 01:58:46;;;;;;;0.50;0.40;;;;;;;16.47;90.30;100652.72;5061409;28;20439;-81
2022/05/27 02:01:23;;;;;;;0.40;0.20;;;;;;;16.47;90.26;100650.91;5066488;28;20503;-80
2022/05/27 02:03:55;;;;;;;0.40;0.20;;;;;;;16.48;90.20;100652.63;5065081;28;20493;-79
2022/05/27 02:06:31;;;;;;;0.60;0.50;;;;;;;16.46;90.59;100659.03;5068690;28;20507;-79
2022/05/27 02:09:06;;;;;;;0.40;0.30;;;;;;;16.42;90.42;100662.78;5051820;28;20465;-79
2022/05/27 02:11:34;;;;;;;0.40;0.20;;;;;;;16.46;90.31;100659.03;5063386;28;20518;-79
2022/05/27 02:14:12;;;;;;;0.40;0.20;;;;;;;16.50;89.75;100657.94;5064261;28;20474;-79
2022/05/27 02:16:46;;;;;;;2.50;0.63;;;;;;;16.46;89.83;100635.75;5069134;28;20520;-79
2022/05/27 02:19:19;;;;;;;0.40;0.20;;;;;;;16.61;89.99;100660.97;5066332;28;20525;-79
2022/05/27 02:21:54;;;;;;;0.70;0.70;;;;;;;16.64;89.93;100660.81;5059100;28;20441;-79
2022/05/27 02:24:37;;;;;;;0.40;0.20;;;;;;;16.65;89.53;100657.19;5062154;28;21765;-79
2022/05/27 02:27:13;;;;;;;0.40;0.37;;;;;;;16.63;89.71;100652.84;5054268;28;20957;-79
2022/05/27 02:29:45;;;;;;;0.40;0.20;;;;;;;16.58;89.61;100651.25;5061891;28;20491;-79
2022/05/27 02:32:23;;;;;;;0.40;0.20;;;;;;;16.82;88.94;100651.03;5061304;28;20446;-79
2022/05/27 02:35:10;;;;;;;0.40;0.20;;;;;;;16.66;89.64;100656.25;5062181;28;20548;-79
2022/05/27 02:37:49;;;;;;;0.40;0.40;;;;;;;16.70;89.36;100652.50;5063643;28;20504;-80
2022/05/27 02:40:37;;;;;;;2.20;0.63;;;;;;;16.71;88.69;100643.50;5046895;28;20454;-79
2022/05/27 02:43:20;;;;;;;0.40;0.20;;;;;;;16.72;89.17;100637.22;5050673;28;20873;-79
2022/05/27 02:45:53;;;;;;;0.40;0.20;;;;;;;16.77;89.09;100640.53;5060736;28;21037;-79
2022/05/27 02:48:31;;;;;;;0.40;0.27;;;;;;;16.89;88.25;100647.13;5066682;28;21010;-80
2022/05/27 02:51:29;;;;;;;0.40;0.20;;;;;;;16.73;88.81;100638.94;5066426;28;20437;-80
2022/05/27 02:54:11;;;;;;;0.40;0.20;;;;;;;16.72;88.33;100644.38;5077374;28;20546;-79
2022/05/27 02:56:49;;;;;;;0.40;0.20;;;;;;;16.71;88.66;100645.31;5062830;28;20449;-79
2022/05/27 02:59:19;;;;;;;0.40;0.20;;;;;;;16.64;89.03;100622.38;5063786;28;20454;-80
2022/05/27 03:01:47;;;;;;;1.23;0.97;;;;;;;16.64;88.91;100642.03;5066041;28;20476;-80
2022/05/27 03:04:16;;;;;;;0.40;0.20;;;;;;;16.63;88.35;100626.00;5052391;28;20477;-79
2022/05/27 03:07:06;;;;;;;0.40;0.20;;;;;;;16.55;88.25;100619.19;5062631;28;20454;-79
2022/05/27 03:09:36;;;;;;;0.40;0.30;;;;;;;16.56;88.51;100631.66;5059462;28;20447;-79
2022/05/27 03:12:17;;;;;;;0.40;0.20;;;;;;;16.59;88.17;100636.03;5067176;28;20505;-79
2022/05/27 03:15:01;;;;;;;1.07;1.07;;;;;;;16.62;88.00;100635.88;5050244;28;20483;-79
2022/05/27 03:17:58;;;;;;;0.40;0.20;;;;;;;16.71;87.11;100616.66;5056712;28;20475;-79
2022/05/27 03:20:43;;;;;;;0.50;0.30;;;;;;;16.64;87.95;100635.78;5046812;28;20455;-79
2022/05/27 03:23:10;;;;;;;0.40;0.30;;;;;;;16.69;87.20;100637.34;5070215;28;20490;-79
2022/05/27 03:25:42;;;;;;;2.97;2.67;;;;;;;16.73;87.39;100638.09;5065703;28;21319;-79
2022/05/27 03:28:27;;;;;;;0.40;0.30;;;;;;;16.73;86.88;100636.28;5073164;28;20463;-79
2022/05/27 03:31:32;;;;;;;0.40;0.20;;;;;;;16.71;87.11;100635.44;5068196;28;20868;-79
2022/05/27 03:34:20;;;;;;;0.40;0.20;;;;;;;16.71;87.06;100640.81;5003584;28;20484;-80
2022/05/27 03:36:55;;;;;;;0.40;0.20;;;;;;;16.88;85.81;100632.84;5050140;28;20953;-79
2022/05/27 03:39:49;;;;;;;0.40;0.30;;;;;;;16.93;85.70;100626.34;5064869;28;20507;-79
2022/05/27 03:42:19;;;;;;;0.40;0.30;;;;;;;16.93;86.14;100629.91;5055195;28;20490;-79
2022/05/27 03:44:55;;;;;;;0.53;0.47;;;;;;;17.03;85.66;100635.72;5042809;28;20497;-79
2022/05/27 03:47:26;;;;;;;0.70;0.70;;;;;;;17.06;85.61;100640.91;5068769;28;20474;-79
2022/05/27 03:49:53;;;;;;;0.40;0.20;;;;;;;17.12;84.97;100637.91;5049512;28;20513;-79
2022/05/27 03:52:31;;;;;;;0.40;0.20;;;;;;;17.05;86.02;100650.78;5062678;28;20458;-79
2022/05/27 03:54:57;;;;;;;0.40;0.20;;;;;;;17.02;85.10;100636.66;5048867;28;20478;-80
2022/05/27 03:57:25;;;;;;;0.40;0.20;;;;;;;17.15;84.96;100651.22;5067808;28;21012;-79
2022/05/27 03:59:51;;;;;;;0.40;0.30;;;;;;;17.31;84.59;100652.19;5063803;28;20956;-79
2022/05/27 04:02:18;;;;;;;0.40;0.20;;;;;;;17.17;84.04;100649.31;5069079;28;21032;-79
2022/05/27 04:04:45;;;;;;;0.40;0.20;;;;;;;17.25;84.08;100641.72;5058479;28;21022;-79
2022/05/27 04:07:11;;;;;;;0.40;0.20;;;;;;;17.29;84.48;100637.97;5067959;28;20454;-79
2022/05/27 04:09:38;;;;;;;0.40;0.20;;;;;;;17.30;84.15;100639.69;5066007;28;20825;-79
2022/05/27 04:12:05;;;;;;;0.40;0.20;;;;;;;17.42;83.45;100649.81;5057561;28;20867;-79
2022/05/27 04:14:32;;;;;;;0.40;0.20;;;;;;;17.31;83.05;100644.13;5066529;28;20482;-79
2022/05/27 04:19:45;;;;;;;0.40;0.23;;;;;;;17.48;82.34;100657.56;5071329;28;20453;-79
2022/05/27 04:22:12;;;;;;;0.40;0.20;;;;;;;17.40;82.82;100645.44;5054275;28;20450;-79
2022/05/27 04:24:38;;;;;;;0.40;0.20;;;;;;;17.45;82.86;100654.16;5067865;28;20470;-79
2022/05/27 04:27:10;;;;;;;0.40;0.20;;;;;;;17.53;82.77;100648.38;5074544;28;20954;-79
2022/05/27 04:29:43;;;;;;;0.40;0.20;;;;;;;17.60;82.43;100650.69;5049009;28;20525;-79
2022/05/27 04:32:10;;;;;;;0.40;0.20;;;;;;;17.58;82.32;100654.41;5067682;28;20454;-80
2022/05/27 04:34:37;;;;;;;0.90;0.90;;;;;;;17.48;83.26;100648.63;5070732;28;20527;-79
2022/05/27 04:37:04;;;;;;;0.40;0.20;;;;;;;17.54;83.03;100647.44;5067750;28;20936;-79
2022/05/27 04:39:31;;;;;;;0.40;0.20;;;;;;;17.59;83.21;100640.00;5043974;28;20960;-79
2022/05/27 04:41:57;;;;;;;0.40;0.20;;;;;;;17.57;82.25;100631.16;5049616;28;20450;-79
2022/05/27 04:44:24;;;;;;;0.40;0.20;;;;;;;17.58;83.11;100630.22;5089850;28;20486;-79
2022/05/27 04:46:51;;;;;;;0.40;0.20;;;;;;;17.60;83.03;100633.69;5087911;28;20454;-79
2022/05/27 04:52:03;;;;;;;0.40;0.20;;;;;;;17.63;83.31;100629.00;5084511;28;20459;-78
2022/05/27 04:54:29;;;;;;;2.40;2.20;;;;;;;17.62;83.25;100639.84;5077318;28;20467;-79
2022/05/27 04:56:57;;;;;;;0.40;0.20;;;;;;;17.64;83.12;100649.56;5071334;28;20954;-80
2022/05/27 04:59:26;;;;;;;0.40;0.20;;;;;;;17.66;82.11;100650.34;5069636;28;20592;-80
2022/05/27 05:01:53;;;;;;;0.40;0.30;;;;;;;17.70;82.62;100657.38;5074270;28;20964;-80
2022/05/27 05:04:19;;;;;;;0.40;0.27;;;;;;;17.60;82.96;100650.69;5049216;28;20544;-79
2022/05/27 05:06:46;;;;;;;0.40;0.20;;;;;;;17.71;82.62;100645.66;5054774;28;20823;-79
2022/05/27 05:09:13;;;;;;;0.40;0.20;;;;;;;17.62;82.76;100647.91;5064483;28;20485;-79
2022/05/27 05:11:39;;;;;;;0.40;0.20;;;;;;;17.60;82.61;100656.06;5063944;28;20450;-79
2022/05/27 05:14:06;;;;;;;1.57;1.23;;;;;;;17.63;82.24;100652.34;5063494;28;20474;-79
2022/05/27 05:16:33;;;;;;;0.40;0.20;;;;;;;17.78;82.18;100651.56;5060337;28;20467;-79
2022/05/27 05:18:59;;;;;;;0.40;0.20;;;;;;;17.72;81.66;100642.00;5054191;28;20455;-79
2022/05/27 05:21:26;;;;;;;0.40;0.40;;;;;;;17.76;81.49;100648.09;5056260;28;20454;-78
2022/05/27 05:23:54;;;;;;;0.40;0.20;;;;;;;17.79;81.48;100641.69;5067598;28;20568;-79
2022/05/27 05:26:20;;;;;;;0.40;0.20;;;;;;;17.75;81.01;100647.22;5072413;28;20462;-79
2022/05/27 05:28:47;;;;;;;0.40;0.30;;;;;;;17.89;81.23;100645.63;5059506;28;20448;-79
2022/05/27 05:31:16;;;;;;;0.40;0.20;;;;;;;17.73;81.67;100629.44;5054552;28;20455;-79
2022/05/27 05:33:43;;;;;;;0.40;0.20;;;;;;;17.83;81.47;100637.91;5054138;28;20525;-79
2022/05/27 05:36:10;;;;;;;0.40;0.30;;;;;;;18.04;80.71;100650.19;5069901;28;20898;-77
2022/05/27 05:38:38;;;;;;;0.63;0.63;;;;;;;18.17;81.28;100653.97;5065655;28;20446;-77
2022/05/27 05:41:06;;;;;;;0.40;0.20;;;;;;;18.33;80.01;100645.91;5060030;28;20878;-77
2022/05/27 05:43:33;;;;;;;0.53;0.53;;;;;;;18.26;80.05;100645.41;5064121;28;20490;-76
2022/05/27 05:46:00;;;;;;;0.70;0.50;;;;;;;18.29;79.88;100633.59;5066568;28;20476;-76
2022/05/27 05:48:27;;;;;;;0.47;0.47;;;;;;;18.26;79.32;100621.16;5064481;28;20453;-78
2022/05/27 05:50:53;;;;;;;0.40;0.20;;;;;;;18.74;79.72;100632.88;5061112;28;21021;-78
2022/05/27 05:53:21;;;;;;;0.40;0.20;;;;;;;18.63;78.76;100640.63;5063620;28;21133;-78
2022/05/27 05:55:47;;;;;;;75.50;2.57;;;;;;;18.49;79.20;100638.72;5071499;28;20470;-77
2022/05/27 05:58:14;;;;;;;0.40;0.20;;;;;;;18.48;78.42;100642.38;5063079;28;20546;-77
2022/05/27 06:00:40;;;;;;;0.47;0.37;;;;;;;18.37;79.27;100644.81;5067291;28;20950;-77
2022/05/27 06:03:07;;;;;;;0.40;0.30;;;;;;;18.35;79.54;100634.09;5065999;28;21067;-78
2022/05/27 06:05:34;;;;;;;0.40;0.27;;;;;;;18.41;79.76;100634.75;5057607;23;20571;-55
2022/05/27 06:08:01;;;;;;;0.40;0.20;;;;;;;18.24;79.71;100639.22;5041405;28;20481;-56
2022/05/27 06:10:28;;;;;;;0.60;0.60;;;;;;;18.26;79.87;100645.41;5052364;28;20457;-55
2022/05/27 06:12:55;;;;;;;0.40;0.30;;;;;;;18.13;80.54;100646.16;5052767;28;20980;-53
2022/05/27 06:15:22;;;;;;;0.57;0.40;;;;;;;18.06;81.16;100649.16;5039720;28;20447;-56
2022/05/27 06:17:48;;;;;;;0.40;0.20;;;;;;;18.09;80.18;100639.16;5039897;28;20795;-56
2022/05/27 06:20:15;;;;;;;0.40;0.20;;;;;;;17.88;80.87;100642.06;5046490;28;20451;-55
2022/05/27 06:22:43;;;;;;;0.40;0.20;;;;;;;18.18;80.91;100652.13;5044813;28;20470;-56
2022/05/27 06:25:10;;;;;;;0.40;0.20;;;;;;;18.23;80.78;100642.00;5039210;28;20443;-56
2022/05/27 06:27:37;;;;;;;1.00;0.37;;;;;;;18.49;79.97;100644.09;5050621;28;20458;-56
2022/05/27 06:35:36;;;;;;;0.40;0.20;;;;;;;18.67;79.33;100654.84;5040560;28;20452;-56
2022/05/27 06:38:02;;;;;;;0.40;0.20;;;;;;;18.77;78.56;100653.34;5046215;28;20585;-56
2022/05/27 06:40:29;;;;;;;0.40;0.30;;;;;;;18.61;78.53;100654.19;5044634;28;20447;-56
2022/05/27 06:42:55;;;;;;;0.40;0.20;;;;;;;18.79;77.09;100656.88;5039087;28;20482;-56
2022/05/27 06:45:22;;;;;;;0.40;0.20;;;;;;;18.71;77.22;100659.97;5040786;28;20463;-56
2022/05/27 06:47:49;;;;;;;0.40;0.20;;;;;;;18.92;76.12;100661.47;5046029;28;20890;-56
2022/05/27 06:50:15;;;;;;;0.50;0.40;;;;;;;18.82;76.40;100667.47;5044621;28;20447;-56
2022/05/27 06:52:42;;;;;;;0.40;0.30;;;;;;;18.76;77.01;100667.78;5029385;28;20475;-56
2022/05/27 06:55:12;;;;;;;0.57;0.57;;;;;;;18.41;78.16;100664.34;5044436;28;20451;-56
2022/05/27 06:57:38;;;;;;;0.40;0.20;;;;;;;18.11;79.14;100667.75;5038794;28;20451;-56
2022/05/27 07:00:08;;;;;;;0.40;0.30;;;;;;;18.17;79.45;100675.47;5039653;28;20451;-56
2022/05/27 07:02:34;;;;;;;0.50;0.50;;;;;;;18.12;79.53;100674.00;5045706;28;20536;-56
2022/05/27 07:05:01;;;;;;;0.40;0.20;;;;;;;18.41;78.03;100675.97;5044927;28;20518;-56
2022/05/27 07:07:31;;;;;;;0.40;0.20;;;;;;;18.21;78.53;100677.03;5038370;28;20883;-56
2022/05/27 07:09:58;;;;;;;0.40;0.20;;;;;;;18.29;78.24;100680.22;5027611;28;20502;-56
2022/05/27 07:12:24;;;;;;;0.40;0.20;;;;;;;18.38;78.40;100675.28;5045145;28;20468;-56
2022/05/27 07:14:51;;;;;;;0.40;0.20;;;;;;;18.43;78.24;100683.97;5045037;28;20519;-57
2022/05/27 07:17:18;;;;;;;0.40;0.20;;;;;;;18.01;79.47;100683.50;5008915;28;20454;-56
2022/05/27 07:19:46;;;;;;;0.40;0.20;;;;;;;18.53;78.26;100686.09;5038465;28;20452;-56
2022/05/27 07:22:12;;;;;;;0.40;0.20;;;;;;;18.29;78.80;100684.72;5040067;28;20584;-56
2022/05/27 07:24:39;;;;;;;0.40;0.20;;;;;;;18.22;79.00;100688.69;5023614;28;20575;-56
2022/05/27 07:27:07;;;;;;;0.40;0.20;;;;;;;18.34;78.10;100688.03;5012026;28;20460;-56
2022/05/27 07:29:34;;;;;;;0.40;0.20;;;;;;;18.39;77.78;100685.97;5033434;28;20945;-56
2022/05/27 07:32:01;;;;;;;8.30;1.90;;;;;;;18.71;77.18;100683.34;5043138;28;20534;-56
2022/05/27 07:34:28;;;;;;;0.40;0.20;;;;;;;18.26;77.95;100687.59;5045028;28;20501;-56
2022/05/27 07:36:54;;;;;;;0.40;0.20;;;;;;;18.21;78.75;100687.81;5040574;28;20522;-56
2022/05/27 07:39:21;;;;;;;0.40;0.20;;;;;;;18.64;77.71;100686.41;5038050;28;20447;-56
2022/05/27 07:41:48;;;;;;;0.40;0.20;;;;;;;18.64;77.58;100688.22;5042337;28;20487;-56
2022/05/27 07:44:15;;;;;;;0.40;0.20;;;;;;;18.26;79.22;100683.06;5044768;28;20570;-56
2022/05/27 07:46:42;;;;;;;0.40;0.20;;;;;;;18.44;77.91;100677.63;5040652;28;20872;-56
2022/05/27 07:49:09;;;;;;;0.40;0.20;;;;;;;18.54;78.01;100682.44;5038434;28;20589;-56
2022/05/27 07:51:55;;;;;;;0.40;0.20;;;;;;;18.55;78.14;100697.63;5039574;28;20613;-56
2022/05/27 07:54:22;;;;;;;0.40;0.20;;;;;;;18.25;78.81;100692.09;5044821;28;20479;-56
2022/05/27 07:56:49;;;;;;;0.40;0.20;;;;;;;18.29;78.84;100696.34;5044016;28;20450;-56
2022/05/27 07:59:16;;;;;;;0.40;0.30;;;;;;;18.58;78.13;100707.34;5038081;28;20455;-56
2022/05/27 08:01:42;;;;;;;0.60;0.60;;;;;;;18.34;78.92;100704.16;5038687;28;20452;-56
2022/05/27 08:04:09;;;;;;;0.50;0.30;;;;;;;18.44;78.92;100688.41;5044635;28;20487;-56
2022/05/27 08:06:36;;;;;;;0.40;0.30;;;;;;;18.37;78.60;100687.88;5027056;28;20458;-56
2022/05/27 08:09:11;;;;;;;0.40;0.20;;;;;;;18.55;78.63;100688.69;5031541;28;20930;-56
2022/05/27 08:11:37;;;;;;;0.40;0.20;;;;;;;18.48;79.34;100695.34;5037659;28;20451;-56
2022/05/27 08:14:05;;;;;;;0.40;0.20;;;;;;;18.56;79.63;100704.75;5043554;28;20467;-56
2022/05/27 08:16:34;;;;;;;0.40;0.20;;;;;;;18.68;79.23;100692.47;5044457;28;20533;-56
2022/05/27 08:19:03;;;;;;;0.50;0.40;;;;;;;18.88;77.73;100699.41;5039830;28;20447;-56
2022/05/27 08:21:29;;;;;;;1.03;0.87;;;;;;;18.82;77.81;100695.25;5020122;28;20451;-56
2022/05/27 08:23:56;;;;;;;0.40;0.20;;;;;;;18.86;78.15;100686.03;5042149;28;20502;-56
2022/05/27 08:26:23;;;;;;;0.40;0.20;;;;;;;18.71;78.54;100688.72;5044980;28;20459;-56
2022/05/27 08:28:50;;;;;;;0.40;0.20;;;;;;;18.81;78.43;100690.84;5041938;28;20955;-56
2022/05/27 08:31:16;;;;;;;0.40;0.20;;;;;;;18.72;77.65;100690.47;5044542;28;20852;-56
2022/05/27 08:39:16;;;;;;;0.40;0.20;;;;;;;19.17;77.22;100697.75;5021318;28;20503;-57
2022/05/27 08:41:51;;;;;;;0.40;0.20;;;;;;;19.10;77.72;100682.91;5039756;28;20446;-56
2022/05/27 08:44:40;;;;;;;0.40;0.20;;;;;;;18.86;78.39;100695.94;5037148;28;20490;-56
2022/05/27 08:47:29;;;;;;;0.40;0.20;;;;;;;18.94;77.98;100696.41;5038125;28;20482;-56
2022/05/27 08:50:45;;;;;;;0.40;0.20;;;;;;;19.18;77.12;100692.28;5022791;28;20939;-56
2022/05/27 08:53:37;;;;;;;0.40;0.20;;;;;;;18.74;78.49;100694.81;5005358;28;20482;-56
2022/05/27 09:02:02;;;;;;;0.40;0.30;;;;;;;18.70;79.42;100695.06;5040506;28;20505;-56
2022/05/27 09:04:49;;;;;;;0.40;0.20;;;;;;;18.78;79.49;100701.78;5045417;28;20581;-56
2022/05/27 09:07:30;;;;;;;0.40;0.20;;;;;;;19.12;77.42;100697.16;5047624;28;20554;-56
2022/05/27 09:10:00;;;;;;;0.40;0.20;;;;;;;18.85;78.66;100699.59;5047595;28;20939;-56
2022/05/27 09:12:38;;;;;;;0.40;0.20;;;;;;;19.01;78.16;100705.84;5023957;28;20470;-56
2022/05/27 09:15:32;;;;;;;0.40;0.30;;;;;;;19.08;77.66;100696.47;5040707;28;20521;-56
2022/05/27 09:18:02;;;;;;;0.40;0.20;;;;;;;18.88;78.31;100696.72;5031634;28;20821;-56
2022/05/27 09:20:47;;;;;;;0.40;0.20;;;;;;;18.82;79.57;100703.34;5021600;28;20448;-56
2022/05/27 09:23:38;;;;;;;3.80;0.60;;;;;;;19.13;78.63;100698.91;5047328;28;20972;-56
2022/05/27 09:26:27;;;;;;;0.40;0.30;;;;;;;19.10;77.77;100697.25;5045245;28;20455;-56
2022/05/27 09:29:16;;;;;;;0.40;0.20;;;;;;;19.18;76.90;100697.66;5033552;28;20512;-56
2022/05/27 09:31:54;;;;;;;0.40;0.20;;;;;;;19.04;78.02;100702.97;5040064;28;21013;-56
2022/05/27 09:34:25;;;;;;;0.40;0.20;;;;;;;18.96;77.52;100701.69;5040147;28;20933;-56
2022/05/27 09:36:54;;;;;;;0.40;0.20;;;;;;;19.33;76.68;100704.03;5044875;28;20932;-56
2022/05/27 09:39:24;;;;;;;0.40;0.20;;;;;;;19.12;77.51;100707.94;5024986;28;20510;-56
2022/05/27 09:42:11;;;;;;;0.40;0.20;;;;;;;19.36;77.13;100708.38;5043720;28;20929;-56
2022/05/27 09:44:43;;;;;;;1.20;0.43;;;;;;;19.65;75.79;100707.53;5039816;28;20541;-57
2022/05/27 09:47:10;;;;;;;0.40;0.20;;;;;;;19.36;76.18;100702.97;5040064;28;20448;-56
2022/05/27 09:49:37;;;;;;;0.40;0.20;;;;;;;19.74;75.64;100701.63;5033920;28;20467;-56
2022/05/27 09:52:05;;;;;;;0.40;0.20;;;;;;;19.60;76.38;100701.56;5046720;28;20477;-56
2022/05/27 09:54:46;;;;;;;0.40;0.20;;;;;;;19.41;76.50;100706.25;5041399;28;20509;-56
2022/05/27 09:57:16;;;;;;;0.40;0.20;;;;;;;19.66;76.90;100703.88;5039683;28;20857;-56
2022/05/27 09:59:48;;;;;;;0.40;0.20;;;;;;;19.77;75.75;100701.41;5043125;28;20450;-56
2022/05/27 10:02:26;;;;;;;0.40;0.20;;;;;;;19.89;74.88;100699.81;5046620;28;20467;-56
2022/05/27 10:04:59;;;;;;;0.40;0.20;;;;;;;20.04;74.30;100695.31;5045874;28;20494;-56
2022/05/27 10:07:34;;;;;;;0.40;0.20;;;;;;;19.89;75.12;100705.22;5026542;28;20455;-56
2022/05/27 10:10:28;;;;;;;0.40;0.20;;;;;;;19.78;74.80;100686.97;5030388;28;20513;-56
2022/05/27 10:12:57;;;;;;;0.40;0.20;;;;;;;19.89;75.11;100694.41;5041119;28;20550;-56
2022/05/27 10:15:29;;;;;;;0.40;0.20;;;;;;;19.85;75.01;100694.69;5046223;28;20443;-56
2022/05/27 10:18:15;;;;;;;0.40;0.20;;;;;;;19.67;74.98;100692.13;5046120;28;20454;-56
2022/05/27 10:20:43;;;;;;;0.40;0.20;;;;;;;19.67;75.50;100697.53;5043991;28;20513;-56
2022/05/27 10:23:19;;;;;;;0.40;0.20;;;;;;;19.91;74.85;100694.31;5046248;28;20466;-56
2022/05/27 10:25:46;;;;;;;0.40;0.20;;;;;;;20.06;74.73;100696.09;5043603;28;21007;-56
2022/05/27 10:28:29;;;;;;;0.40;0.30;;;;;;;19.92;74.55;100698.75;5046450;28;20475;-56
2022/05/27 10:31:14;;;;;;;0.40;0.20;;;;;;;19.74;75.53;100707.00;5046081;28;20447;-56
2022/05/27 10:33:47;;;;;;;0.40;0.20;;;;;;;19.98;74.95;100703.75;5031096;28;20468;-56
2022/05/27 10:36:26;;;;;;;0.40;0.20;;;;;;;19.74;75.19;100700.75;5039267;28;20455;-56
2022/05/27 10:38:58;;;;;;;0.60;0.40;;;;;;;19.90;75.57;100695.28;5040512;28;20443;-56
2022/05/27 10:41:34;;;;;;;0.40;0.20;;;;;;;20.31;74.45;100701.72;5045787;28;20455;-56
2022/05/27 10:44:48;;;;;;;0.40;0.20;;;;;;;20.17;73.62;100699.00;5045726;28;20490;-56
2022/05/27 10:47:27;;;;;;;0.40;0.20;;;;;;;20.58;73.48;100690.16;4952126;29;20510;-56
2022/05/27 10:50:17;;;;;;;0.40;0.20;;;;;;;20.57;71.80;100692.00;4952315;29;20955;-56
2022/05/27 10:53:00;;;;;;;0.40;0.20;;;;;;;20.57;73.66;100683.03;4989902;28;20494;-56
2022/05/27 10:55:42;;;;;;;0.40;0.20;;;;;;;20.84;72.58;100683.09;5038513;28;20521;-57
2022/05/27 11:02:12;;;;;;;0.40;0.20;;;;;;;20.58;72.91;100687.47;5023215;28;20995;-56
2022/05/27 11:05:09;;;;;;;0.40;0.20;;;;;;;21.09;71.76;100675.06;5032052;28;20549;-56
2022/05/27 11:07:51;;;;;;;2.00;0.73;;;;;;;21.13;72.27;100673.06;5027988;28;20458;-56
2022/05/27 11:10:48;;;;;;;0.40;0.20;;;;;;;21.10;72.27;100678.66;5041968;28;20924;-56
2022/05/27 11:16:31;;;;;;;0.40;0.20;;;;;;;22.15;68.29;100669.66;5044514;28;20451;-56
2022/05/27 11:19:12;;;;;;;0.40;0.20;;;;;;;21.69;68.75;100671.97;5026806;28;20482;-56
2022/05/27 11:21:54;;;;;;;0.40;0.20;;;;;;;21.56;68.17;100666.53;5037642;28;20447;-56
2022/05/27 11:24:48;;;;;;;0.40;0.20;;;;;;;21.68;70.47;100672.94;5039317;28;20568;-56
2022/05/27 11:27:36;;;;;;;0.40;0.20;;;;;;;21.86;67.87;100678.91;5012128;28;20539;-56
2022/05/27 11:30:08;;;;;;;0.40;0.20;;;;;;;21.26;68.21;100677.59;5044772;28;20452;-56
2022/05/27 11:33:06;;;;;;;0.40;0.30;;;;;;;21.27;70.17;100671.22;5044678;28;20474;-57
2022/05/27 11:35:42;;;;;;;0.40;0.20;;;;;;;21.40;69.61;100665.84;5033562;28;20451;-56
2022/05/27 11:38:25;;;;;;;0.40;0.30;;;;;;;21.53;68.01;100668.59;5030500;28;20452;-56
2022/05/27 11:41:11;;;;;;;0.40;0.20;;;;;;;21.91;68.09;100670.47;5039486;28;20476;-56
2022/05/27 11:43:52;;;;;;;0.40;0.20;;;;;;;21.41;68.17;100664.88;5042090;28;20481;-56
2022/05/27 11:46:33;;;;;;;0.40;0.20;;;;;;;21.61;68.73;100665.34;5037775;28;20442;-56
2022/05/27 11:49:58;;;;;;;0.40;0.20;;;;;;;21.37;68.47;100659.75;5037716;28;20451;-56
2022/05/27 11:52:59;;;;;;;0.40;0.20;;;;;;;21.19;68.31;100662.69;4931892;28;20476;-57
2022/05/27 11:55:44;;;;;;;0.40;0.20;;;;;;;21.46;68.76;100653.72;5037671;28;20476;-56
2022/05/27 11:58:26;;;;;;;0.40;0.20;;;;;;;22.11;66.77;100648.31;5023524;28;20448;-56
2022/05/27 12:01:03;;;;;;;0.40;0.20;;;;;;;22.00;66.41;100643.63;5044566;28;20866;-56
2022/05/27 12:03:35;;;;;;;0.40;0.30;;;;;;;21.98;66.79;100656.41;5044673;28;20463;-56
2022/05/27 12:06:12;;;;;;;0.40;0.20;;;;;;;21.96;66.67;100655.66;5038880;28;20494;-57
2022/05/27 12:08:58;;;;;;;0.40;0.20;;;;;;;22.34;65.35;100647.56;5037394;28;20497;-56
2022/05/27 12:11:33;;;;;;;0.50;0.43;;;;;;;22.47;65.19;100663.78;5039402;28;20447;-56
2022/05/27 12:14:16;;;;;;;0.40;0.20;;;;;;;22.08;67.00;100652.13;5044553;28;20595;-56
2022/05/27 12:16:48;;;;;;;0.40;0.30;;;;;;;22.18;66.16;100646.91;5044554;28;20443;-56
2022/05/27 12:19:29;;;;;;;0.57;0.40;;;;;;;22.16;66.40;100657.84;5041955;28;20443;-56
2022/05/27 12:22:02;;;;;;;0.40;0.20;;;;;;;21.55;67.71;100653.97;5038020;28;20467;-56
2022/05/27 12:24:34;;;;;;;0.40;0.20;;;;;;;21.22;69.94;100651.66;5037661;28;20487;-56